sensor_id;sensor_type;location;lat;lon;timestamp;temperature;humidity
27162;DHT22;54464;50.558;9.704;2023-03-11T00:00:20;1.30;99.90
27162;DHT22;54464;50.558;9.704;2023-03-11T00:02:48;1.30;99.90
27162;DHT22;54464;50.558;9.704;2023-03-11T00:05:24;1.30;99.90
27162;DHT22;54464;50.558;9.704;2023-03-11T00:07:50;1.30;99.90
27162;DHT22;54464;50.558;9.704;2023-03-11T00:10:18;1.30;99.90
27162;DHT22;54464;50.558;9.704;2023-03-11T00:12:44;1.30;99.90
27162;DHT22;54464;50.558;9.704;2023-03-11T00:15:11;1.30;99.90
27162;DHT22;54464;50.558;9.704;2023-03-11T00:17:37;1.30;99.90
27162;DHT22;54464;50.558;9.704;2023-03-11T00:20:05;1.30;99.90
27162;DHT22;54464;50.558;9.704;2023-03-11T00:22:31;1.30;99.90
27162;DHT22;54464;50.558;9.704;2023-03-11T00:24:58;1.30;99.90
27162;DHT22;54464;50.558;9.704;2023-03-11T00:27:23;1.30;99.90
27162;DHT22;54464;50.558;9.704;2023-03-11T00:29:49;1.30;99.90
27162;DHT22;54464;50.558;9.704;2023-03-11T00:32:15;1.30;99.90
27162;DHT22;54464;50.558;9.704;2023-03-11T00:34:41;1.20;99.90
27162;DHT22;54464;50.558;9.704;2023-03-11T00:37:07;1.20;99.90
27162;DHT22;54464;50.558;9.704;2023-03-11T00:39:33;1.20;99.90
27162;DHT22;54464;50.558;9.704;2023-03-11T00:41:58;1.20;99.90
27162;DHT22;54464;50.558;9.704;2023-03-11T00:44:24;1.20;99.90
27162;DHT22;54464;50.558;9.704;2023-03-11T00:46:53;1.10;99.90
27162;DHT22;54464;50.558;9.704;2023-03-11T00:49:18;1.10;99.90
27162;DHT22;54464;50.558;9.704;2023-03-11T00:51:44;1.10;99.90
27162;DHT22;54464;50.558;9.704;2023-03-11T00:54:09;1.10;99.90
27162;DHT22;54464;50.558;9.704;2023-03-11T00:56:35;1.00;99.90
27162;DHT22;54464;50.558;9.704;2023-03-11T00:59:01;0.90;99.90
27162;DHT22;54464;50.558;9.704;2023-03-11T01:01:26;0.90;99.90
27162;DHT22;54464;50.558;9.704;2023-03-11T01:03:52;0.80;99.90
27162;DHT22;54464;50.558;9.704;2023-03-11T01:06:17;0.80;99.90
27162;DHT22;54464;50.558;9.704;2023-03-11T01:08:43;0.70;99.90
27162;DHT22;54464;50.558;9.704;2023-03-11T01:11:09;0.70;99.90
27162;DHT22;54464;50.558;9.704;2023-03-11T01:13:35;0.70;99.90
27162;DHT22;54464;50.558;9.704;2023-03-11T01:16:01;0.80;99.90
27162;DHT22;54464;50.558;9.704;2023-03-11T01:18:27;0.80;99.90
27162;DHT22;54464;50.558;9.704;2023-03-11T01:20:53;0.80;99.90
27162;DHT22;54464;50.558;9.704;2023-03-11T01:23:19;0.80;99.90
27162;DHT22;54464;50.558;9.704;2023-03-11T01:25:45;0.80;99.90
27162;DHT22;54464;50.558;9.704;2023-03-11T01:28:11;0.80;99.90
27162;DHT22;54464;50.558;9.704;2023-03-11T01:30:38;0.80;99.90
27162;DHT22;54464;50.558;9.704;2023-03-11T01:33:05;0.80;99.90
27162;DHT22;54464;50.558;9.704;2023-03-11T01:35:31;0.80;99.90
27162;DHT22;54464;50.558;9.704;2023-03-11T01:37:57;0.80;99.90
27162;DHT22;54464;50.558;9.704;2023-03-11T01:40:30;0.80;99.90
27162;DHT22;54464;50.558;9.704;2023-03-11T01:42:58;0.80;99.90
27162;DHT22;54464;50.558;9.704;2023-03-11T01:47:55;0.80;99.90
27162;DHT22;54464;50.558;9.704;2023-03-11T01:50:21;0.80;99.90
27162;DHT22;54464;50.558;9.704;2023-03-11T01:52:47;0.80;99.90
27162;DHT22;54464;50.558;9.704;2023-03-11T01:55:14;0.70;99.90
27162;DHT22;54464;50.558;9.704;2023-03-11T01:57:42;0.70;99.90
27162;DHT22;54464;50.558;9.704;2023-03-11T02:00:11;0.80;99.90
27162;DHT22;54464;50.558;9.704;2023-03-11T02:02:42;0.70;99.90
27162;DHT22;54464;50.558;9.704;2023-03-11T02:05:10;0.70;99.90
27162;DHT22;54464;50.558;9.704;2023-03-11T02:07:40;0.80;99.90
27162;DHT22;54464;50.558;9.704;2023-03-11T02:10:07;0.70;99.90
27162;DHT22;54464;50.558;9.704;2023-03-11T02:12:34;0.80;99.90
27162;DHT22;54464;50.558;9.704;2023-03-11T02:15:02;0.80;99.90
27162;DHT22;54464;50.558;9.704;2023-03-11T02:17:30;0.70;99.90
27162;DHT22;54464;50.558;9.704;2023-03-11T02:20:29;0.70;99.90
27162;DHT22;54464;50.558;9.704;2023-03-11T02:22:59;0.70;99.90
27162;DHT22;54464;50.558;9.704;2023-03-11T02:25:56;0.70;99.90
27162;DHT22;54464;50.558;9.704;2023-03-11T02:28:25;0.80;99.90
27162;DHT22;54464;50.558;9.704;2023-03-11T02:30:52;0.70;99.90
27162;DHT22;54464;50.558;9.704;2023-03-11T02:33:20;0.70;99.90
27162;DHT22;54464;50.558;9.704;2023-03-11T02:35:47;0.80;99.90
27162;DHT22;54464;50.558;9.704;2023-03-11T02:38:13;0.80;99.90
27162;DHT22;54464;50.558;9.704;2023-03-11T02:43:15;0.80;99.90
27162;DHT22;54464;50.558;9.704;2023-03-11T02:45:44;0.80;99.90
27162;DHT22;54464;50.558;9.704;2023-03-11T02:48:11;0.80;99.90
27162;DHT22;54464;50.558;9.704;2023-03-11T02:50:38;0.80;99.90
27162;DHT22;54464;50.558;9.704;2023-03-11T02:53:05;0.70;99.90
27162;DHT22;54464;50.558;9.704;2023-03-11T02:55:31;0.70;99.90
27162;DHT22;54464;50.558;9.704;2023-03-11T02:57:57;0.70;99.90
27162;DHT22;54464;50.558;9.704;2023-03-11T03:00:22;0.70;99.90
27162;DHT22;54464;50.558;9.704;2023-03-11T03:02:49;0.70;99.90
27162;DHT22;54464;50.558;9.704;2023-03-11T03:05:19;0.70;99.90
27162;DHT22;54464;50.558;9.704;2023-03-11T03:07:46;0.70;99.90
27162;DHT22;54464;50.558;9.704;2023-03-11T03:10:13;0.70;99.90
27162;DHT22;54464;50.558;9.704;2023-03-11T03:12:39;0.70;99.90
27162;DHT22;54464;50.558;9.704;2023-03-11T03:15:05;0.70;99.90
27162;DHT22;54464;50.558;9.704;2023-03-11T03:17:31;0.70;99.90
27162;DHT22;54464;50.558;9.704;2023-03-11T03:19:56;0.70;99.90
27162;DHT22;54464;50.558;9.704;2023-03-11T03:22:22;0.70;99.90
27162;DHT22;54464;50.558;9.704;2023-03-11T03:24:52;0.70;99.90
27162;DHT22;54464;50.558;9.704;2023-03-11T03:27:18;0.70;99.90
27162;DHT22;54464;50.558;9.704;2023-03-11T03:29:43;0.70;99.90
27162;DHT22;54464;50.558;9.704;2023-03-11T03:32:09;0.70;99.90
27162;DHT22;54464;50.558;9.704;2023-03-11T03:34:35;0.70;99.90
27162;DHT22;54464;50.558;9.704;2023-03-11T03:37:00;0.70;99.90
27162;DHT22;54464;50.558;9.704;2023-03-11T03:39:26;0.60;99.90
27162;DHT22;54464;50.558;9.704;2023-03-11T03:41:51;0.60;99.90
27162;DHT22;54464;50.558;9.704;2023-03-11T03:44:17;0.60;99.90
27162;DHT22;54464;50.558;9.704;2023-03-11T03:46:43;0.70;99.90
27162;DHT22;54464;50.558;9.704;2023-03-11T03:49:08;0.60;99.90
27162;DHT22;54464;50.558;9.704;2023-03-11T03:51:34;0.60;99.90
27162;DHT22;54464;50.558;9.704;2023-03-11T03:54:00;0.60;99.90
27162;DHT22;54464;50.558;9.704;2023-03-11T03:56:25;0.50;99.90
27162;DHT22;54464;50.558;9.704;2023-03-11T03:58:52;0.50;99.90
27162;DHT22;54464;50.558;9.704;2023-03-11T04:01:18;0.40;99.90
27162;DHT22;54464;50.558;9.704;2023-03-11T04:03:44;0.40;99.90
27162;DHT22;54464;50.558;9.704;2023-03-11T04:08:38;0.40;99.90
27162;DHT22;54464;50.558;9.704;2023-03-11T04:11:04;0.40;99.90
27162;DHT22;54464;50.558;9.704;2023-03-11T04:13:30;0.50;99.90
27162;DHT22;54464;50.558;9.704;2023-03-11T04:15:56;0.50;99.90
27162;DHT22;54464;50.558;9.704;2023-03-11T04:18:22;0.40;99.90
27162;DHT22;54464;50.558;9.704;2023-03-11T04:20:47;0.50;99.90
27162;DHT22;54464;50.558;9.704;2023-03-11T04:23:13;0.50;99.90
27162;DHT22;54464;50.558;9.704;2023-03-11T04:25:39;0.40;99.90
27162;DHT22;54464;50.558;9.704;2023-03-11T04:28:04;0.50;99.90
27162;DHT22;54464;50.558;9.704;2023-03-11T04:30:30;0.40;99.90
27162;DHT22;54464;50.558;9.704;2023-03-11T04:32:56;0.40;99.90
27162;DHT22;54464;50.558;9.704;2023-03-11T04:35:21;0.50;99.90
27162;DHT22;54464;50.558;9.704;2023-03-11T04:37:47;0.50;99.90
27162;DHT22;54464;50.558;9.704;2023-03-11T04:40:13;0.40;99.90
27162;DHT22;54464;50.558;9.704;2023-03-11T04:42:39;0.40;99.90
27162;DHT22;54464;50.558;9.704;2023-03-11T04:45:06;0.40;99.90
27162;DHT22;54464;50.558;9.704;2023-03-11T04:47:32;0.40;99.90
27162;DHT22;54464;50.558;9.704;2023-03-11T04:49:57;0.50;99.90
27162;DHT22;54464;50.558;9.704;2023-03-11T04:52:23;0.40;99.90
27162;DHT22;54464;50.558;9.704;2023-03-11T04:54:49;0.40;99.90
27162;DHT22;54464;50.558;9.704;2023-03-11T04:57:14;0.40;99.90
27162;DHT22;54464;50.558;9.704;2023-03-11T04:59:40;0.40;99.90
27162;DHT22;54464;50.558;9.704;2023-03-11T05:02:06;0.40;99.90
27162;DHT22;54464;50.558;9.704;2023-03-11T05:04:31;0.40;99.90
27162;DHT22;54464;50.558;9.704;2023-03-11T05:06:57;0.30;99.90
27162;DHT22;54464;50.558;9.704;2023-03-11T05:09:23;0.30;99.90
27162;DHT22;54464;50.558;9.704;2023-03-11T05:11:48;0.30;99.90
27162;DHT22;54464;50.558;9.704;2023-03-11T05:14:14;0.30;99.90
27162;DHT22;54464;50.558;9.704;2023-03-11T05:16:39;0.30;99.90
27162;DHT22;54464;50.558;9.704;2023-03-11T05:19:05;0.30;99.90
27162;DHT22;54464;50.558;9.704;2023-03-11T05:21:51;0.20;99.90
27162;DHT22;54464;50.558;9.704;2023-03-11T05:24:16;0.20;99.90
27162;DHT22;54464;50.558;9.704;2023-03-11T05:26:42;0.30;99.90
27162;DHT22;54464;50.558;9.704;2023-03-11T05:29:07;0.20;99.90
27162;DHT22;54464;50.558;9.704;2023-03-11T05:31:33;0.20;99.90
27162;DHT22;54464;50.558;9.704;2023-03-11T05:33:59;0.20;99.90
27162;DHT22;54464;50.558;9.704;2023-03-11T05:36:24;0.20;99.90
27162;DHT22;54464;50.558;9.704;2023-03-11T05:38:50;0.30;99.90
27162;DHT22;54464;50.558;9.704;2023-03-11T05:41:17;0.20;99.90
27162;DHT22;54464;50.558;9.704;2023-03-11T05:43:43;0.20;99.90
27162;DHT22;54464;50.558;9.704;2023-03-11T05:46:09;0.20;99.90
27162;DHT22;54464;50.558;9.704;2023-03-11T05:48:36;0.30;99.90
27162;DHT22;54464;50.558;9.704;2023-03-11T05:51:07;0.20;99.90
27162;DHT22;54464;50.558;9.704;2023-03-11T05:53:33;0.20;99.90
27162;DHT22;54464;50.558;9.704;2023-03-11T05:55:59;0.20;99.90
27162;DHT22;54464;50.558;9.704;2023-03-11T05:58:25;0.20;99.90
27162;DHT22;54464;50.558;9.704;2023-03-11T06:00:51;0.20;99.90
27162;DHT22;54464;50.558;9.704;2023-03-11T06:03:17;0.20;99.90
27162;DHT22;54464;50.558;9.704;2023-03-11T06:05:45;0.20;99.90
27162;DHT22;54464;50.558;9.704;2023-03-11T06:08:10;0.20;99.90
27162;DHT22;54464;50.558;9.704;2023-03-11T06:10:36;0.20;99.90
27162;DHT22;54464;50.558;9.704;2023-03-11T06:13:02;0.20;99.90
27162;DHT22;54464;50.558;9.704;2023-03-11T06:15:27;0.20;99.90
27162;DHT22;54464;50.558;9.704;2023-03-11T06:17:53;0.20;99.90
27162;DHT22;54464;50.558;9.704;2023-03-11T06:20:19;0.20;99.90
27162;DHT22;54464;50.558;9.704;2023-03-11T06:22:47;0.20;99.90
27162;DHT22;54464;50.558;9.704;2023-03-11T06:25:13;0.20;99.90
27162;DHT22;54464;50.558;9.704;2023-03-11T06:27:38;0.20;99.90
27162;DHT22;54464;50.558;9.704;2023-03-11T06:30:04;0.20;99.90
27162;DHT22;54464;50.558;9.704;2023-03-11T06:32:30;0.20;99.90
27162;DHT22;54464;50.558;9.704;2023-03-11T06:34:56;0.20;99.90
27162;DHT22;54464;50.558;9.704;2023-03-11T06:37:22;0.20;99.90
27162;DHT22;54464;50.558;9.704;2023-03-11T06:39:52;0.20;99.90
27162;DHT22;54464;50.558;9.704;2023-03-11T06:42:18;0.30;99.90
27162;DHT22;54464;50.558;9.704;2023-03-11T06:44:46;0.30;99.90
27162;DHT22;54464;50.558;9.704;2023-03-11T06:47:12;0.30;99.90
27162;DHT22;54464;50.558;9.704;2023-03-11T06:49:38;0.30;99.90
27162;DHT22;54464;50.558;9.704;2023-03-11T06:52:06;0.40;99.90
27162;DHT22;54464;50.558;9.704;2023-03-11T06:54:32;0.40;99.90
27162;DHT22;54464;50.558;9.704;2023-03-11T06:56:58;0.50;99.90
27162;DHT22;54464;50.558;9.704;2023-03-11T06:59:23;0.40;99.90
27162;DHT22;54464;50.558;9.704;2023-03-11T07:01:49;0.40;99.90
27162;DHT22;54464;50.558;9.704;2023-03-11T07:04:15;0.40;99.90
27162;DHT22;54464;50.558;9.704;2023-03-11T07:06:41;0.40;99.90
27162;DHT22;54464;50.558;9.704;2023-03-11T07:09:08;0.50;99.90
27162;DHT22;54464;50.558;9.704;2023-03-11T07:11:33;0.40;99.90
27162;DHT22;54464;50.558;9.704;2023-03-11T07:13:59;0.40;99.90
27162;DHT22;54464;50.558;9.704;2023-03-11T07:16:27;0.50;99.90
27162;DHT22;54464;50.558;9.704;2023-03-11T07:18:58;0.60;99.90
27162;DHT22;54464;50.558;9.704;2023-03-11T07:21:26;0.60;99.90
27162;DHT22;54464;50.558;9.704;2023-03-11T07:23:57;0.60;99.90
27162;DHT22;54464;50.558;9.704;2023-03-11T07:26:24;0.70;99.90
27162;DHT22;54464;50.558;9.704;2023-03-11T07:28:50;0.60;99.90
27162;DHT22;54464;50.558;9.704;2023-03-11T07:31:19;0.70;99.90
27162;DHT22;54464;50.558;9.704;2023-03-11T07:33:46;0.70;99.90
27162;DHT22;54464;50.558;9.704;2023-03-11T07:36:16;0.70;99.90
27162;DHT22;54464;50.558;9.704;2023-03-11T07:38:43;0.70;99.90
27162;DHT22;54464;50.558;9.704;2023-03-11T07:41:10;0.70;99.90
27162;DHT22;54464;50.558;9.704;2023-03-11T07:43:37;0.60;99.90
27162;DHT22;54464;50.558;9.704;2023-03-11T07:46:12;0.50;99.90
27162;DHT22;54464;50.558;9.704;2023-03-11T07:48:40;0.50;99.90
27162;DHT22;54464;50.558;9.704;2023-03-11T07:51:13;0.50;99.90
27162;DHT22;54464;50.558;9.704;2023-03-11T07:53:39;0.40;99.90
27162;DHT22;54464;50.558;9.704;2023-03-11T07:56:06;0.40;99.90
27162;DHT22;54464;50.558;9.704;2023-03-11T07:58:32;0.30;99.90
27162;DHT22;54464;50.558;9.704;2023-03-11T08:01:16;0.30;99.90
27162;DHT22;54464;50.558;9.704;2023-03-11T08:03:44;0.40;99.90
27162;DHT22;54464;50.558;9.704;2023-03-11T08:06:21;0.40;99.90
27162;DHT22;54464;50.558;9.704;2023-03-11T08:08:56;0.50;99.90
27162;DHT22;54464;50.558;9.704;2023-03-11T08:11:23;0.40;99.90
27162;DHT22;54464;50.558;9.704;2023-03-11T08:13:49;0.40;99.90
27162;DHT22;54464;50.558;9.704;2023-03-11T08:16:17;0.40;99.90
27162;DHT22;54464;50.558;9.704;2023-03-11T08:18:44;0.50;99.90
27162;DHT22;54464;50.558;9.704;2023-03-11T08:21:16;0.50;99.90
27162;DHT22;54464;50.558;9.704;2023-03-11T08:23:42;0.60;99.90
27162;DHT22;54464;50.558;9.704;2023-03-11T08:26:10;0.50;99.90
27162;DHT22;54464;50.558;9.704;2023-03-11T08:28:36;0.50;99.90
27162;DHT22;54464;50.558;9.704;2023-03-11T08:31:10;0.50;99.90
27162;DHT22;54464;50.558;9.704;2023-03-11T08:33:36;0.50;99.90
27162;DHT22;54464;50.558;9.704;2023-03-11T08:36:02;0.60;99.90
27162;DHT22;54464;50.558;9.704;2023-03-11T08:38:27;0.60;99.90
27162;DHT22;54464;50.558;9.704;2023-03-11T08:40:53;0.60;99.90
27162;DHT22;54464;50.558;9.704;2023-03-11T08:43:19;0.60;99.90
27162;DHT22;54464;50.558;9.704;2023-03-11T08:45:45;0.70;99.90
27162;DHT22;54464;50.558;9.704;2023-03-11T08:48:11;0.80;99.90
27162;DHT22;54464;50.558;9.704;2023-03-11T08:50:41;0.80;99.90
27162;DHT22;54464;50.558;9.704;2023-03-11T08:53:07;0.90;99.90
27162;DHT22;54464;50.558;9.704;2023-03-11T08:55:33;1.00;99.90
27162;DHT22;54464;50.558;9.704;2023-03-11T08:57:59;1.00;99.90
27162;DHT22;54464;50.558;9.704;2023-03-11T09:00:25;1.00;99.90
27162;DHT22;54464;50.558;9.704;2023-03-11T09:02:50;1.10;99.90
27162;DHT22;54464;50.558;9.704;2023-03-11T09:05:16;1.30;99.90
27162;DHT22;54464;50.558;9.704;2023-03-11T09:07:42;1.40;99.90
27162;DHT22;54464;50.558;9.704;2023-03-11T09:10:10;1.50;99.90
27162;DHT22;54464;50.558;9.704;2023-03-11T09:12:36;1.40;99.90
27162;DHT22;54464;50.558;9.704;2023-03-11T09:15:01;1.50;99.90
27162;DHT22;54464;50.558;9.704;2023-03-11T09:17:27;1.40;99.90
27162;DHT22;54464;50.558;9.704;2023-03-11T09:19:55;1.40;99.90
27162;DHT22;54464;50.558;9.704;2023-03-11T09:22:21;1.20;99.90
27162;DHT22;54464;50.558;9.704;2023-03-11T09:24:47;1.20;99.90
27162;DHT22;54464;50.558;9.704;2023-03-11T09:27:12;1.10;99.90
27162;DHT22;54464;50.558;9.704;2023-03-11T09:29:40;1.00;99.90
27162;DHT22;54464;50.558;9.704;2023-03-11T09:32:05;1.00;99.90
27162;DHT22;54464;50.558;9.704;2023-03-11T09:34:31;1.00;99.90
27162;DHT22;54464;50.558;9.704;2023-03-11T09:37:00;1.10;99.90
27162;DHT22;54464;50.558;9.704;2023-03-11T09:39:25;1.20;99.90
27162;DHT22;54464;50.558;9.704;2023-03-11T09:41:55;1.30;99.90
27162;DHT22;54464;50.558;9.704;2023-03-11T09:44:42;1.50;99.90
27162;DHT22;54464;50.558;9.704;2023-03-11T09:50:02;1.80;99.90
27162;DHT22;54464;50.558;9.704;2023-03-11T09:55:41;1.80;99.90
27162;DHT22;54464;50.558;9.704;2023-03-11T09:58:14;1.90;99.90
27162;DHT22;54464;50.558;9.704;2023-03-11T10:00:42;1.90;99.90
27162;DHT22;54464;50.558;9.704;2023-03-11T10:03:40;1.80;99.90
27162;DHT22;54464;50.558;9.704;2023-03-11T10:08:43;1.90;99.90
27162;DHT22;54464;50.558;9.704;2023-03-11T10:11:33;2.10;99.90
27162;DHT22;54464;50.558;9.704;2023-03-11T10:19:57;2.90;99.90
27162;DHT22;54464;50.558;9.704;2023-03-11T10:27:39;3.80;99.90
27162;DHT22;54464;50.558;9.704;2023-03-11T10:30:24;4.20;99.20
27162;DHT22;54464;50.558;9.704;2023-03-11T10:35:35;4.40;94.90
27162;DHT22;54464;50.558;9.704;2023-03-11T10:38:16;5.10;95.10
27162;DHT22;54464;50.558;9.704;2023-03-11T10:40:45;6.50;93.50
27162;DHT22;54464;50.558;9.704;2023-03-11T10:43:25;7.40;90.50
27162;DHT22;54464;50.558;9.704;2023-03-11T10:45:52;8.70;88.70
27162;DHT22;54464;50.558;9.704;2023-03-11T10:48:19;10.30;86.10
27162;DHT22;54464;50.558;9.704;2023-03-11T10:53:20;9.80;83.60
27162;DHT22;54464;50.558;9.704;2023-03-11T10:55:52;8.40;87.50
27162;DHT22;54464;50.558;9.704;2023-03-11T10:58:27;7.10;90.80
27162;DHT22;54464;50.558;9.704;2023-03-11T11:01:17;5.90;91.70
27162;DHT22;54464;50.558;9.704;2023-03-11T11:03:48;4.90;92.80
27162;DHT22;54464;50.558;9.704;2023-03-11T11:06:34;4.30;93.60
27162;DHT22;54464;50.558;9.704;2023-03-11T11:09:16;3.90;94.70
27162;DHT22;54464;50.558;9.704;2023-03-11T11:12:12;3.60;95.40
27162;DHT22;54464;50.558;9.704;2023-03-11T11:14:49;3.50;96.70
27162;DHT22;54464;50.558;9.704;2023-03-11T11:17:32;3.60;98.10
27162;DHT22;54464;50.558;9.704;2023-03-11T11:20:01;3.70;96.10
27162;DHT22;54464;50.558;9.704;2023-03-11T11:22:38;3.40;96.50
27162;DHT22;54464;50.558;9.704;2023-03-11T11:25:27;3.20;96.30
27162;DHT22;54464;50.558;9.704;2023-03-11T11:30:54;3.00;97.60
27162;DHT22;54464;50.558;9.704;2023-03-11T11:33:25;3.00;97.80
27162;DHT22;54464;50.558;9.704;2023-03-11T11:35:54;3.00;97.90
27162;DHT22;54464;50.558;9.704;2023-03-11T11:38:22;3.10;97.80
27162;DHT22;54464;50.558;9.704;2023-03-11T11:40:53;3.10;98.10
27162;DHT22;54464;50.558;9.704;2023-03-11T11:44:09;3.30;97.40
27162;DHT22;54464;50.558;9.704;2023-03-11T11:51:20;3.90;95.50
27162;DHT22;54464;50.558;9.704;2023-03-11T11:56:48;5.40;95.40
27162;DHT22;54464;50.558;9.704;2023-03-11T11:59:16;6.50;92.50
27162;DHT22;54464;50.558;9.704;2023-03-11T12:04:47;7.60;90.60
27162;DHT22;54464;50.558;9.704;2023-03-11T12:10:25;10.80;83.40
27162;DHT22;54464;50.558;9.704;2023-03-11T12:15:52;13.80;67.90
27162;DHT22;54464;50.558;9.704;2023-03-11T12:18:27;10.70;71.40
27162;DHT22;54464;50.558;9.704;2023-03-11T12:20:55;8.20;80.40
27162;DHT22;54464;50.558;9.704;2023-03-11T12:26:12;6.20;91.10
27162;DHT22;54464;50.558;9.704;2023-03-11T12:28:58;5.30;90.90
27162;DHT22;54464;50.558;9.704;2023-03-11T12:31:27;5.10;91.60
27162;DHT22;54464;50.558;9.704;2023-03-11T12:33:58;4.30;92.90
27162;DHT22;54464;50.558;9.704;2023-03-11T12:36:31;4.10;95.10
27162;DHT22;54464;50.558;9.704;2023-03-11T12:38:59;3.90;94.90
27162;DHT22;54464;50.558;9.704;2023-03-11T12:41:30;3.90;94.90
27162;DHT22;54464;50.558;9.704;2023-03-11T12:44:03;4.10;95.50
27162;DHT22;54464;50.558;9.704;2023-03-11T12:49:23;4.00;95.20
27162;DHT22;54464;50.558;9.704;2023-03-11T12:54:37;4.20;94.90
27162;DHT22;54464;50.558;9.704;2023-03-11T13:00:43;6.30;91.50
27162;DHT22;54464;50.558;9.704;2023-03-11T13:08:52;5.40;91.80
27162;DHT22;54464;50.558;9.704;2023-03-11T13:14:16;4.50;93.00
27162;DHT22;54464;50.558;9.704;2023-03-11T13:16:45;4.20;93.70
27162;DHT22;54464;50.558;9.704;2023-03-11T13:21:53;4.40;95.60
27162;DHT22;54464;50.558;9.704;2023-03-11T13:32:49;4.50;92.30
27162;DHT22;54464;50.558;9.704;2023-03-11T13:40:41;4.40;93.30
27162;DHT22;54464;50.558;9.704;2023-03-11T13:43:18;4.50;93.10
27162;DHT22;54464;50.558;9.704;2023-03-11T13:45:55;4.50;93.50
27162;DHT22;54464;50.558;9.704;2023-03-11T13:48:43;4.50;94.30
27162;DHT22;54464;50.558;9.704;2023-03-11T13:51:20;4.50;95.20
27162;DHT22;54464;50.558;9.704;2023-03-11T13:54:18;4.20;92.50
27162;DHT22;54464;50.558;9.704;2023-03-11T13:56:43;3.90;94.20
27162;DHT22;54464;50.558;9.704;2023-03-11T13:59:25;3.80;94.20
27162;DHT22;54464;50.558;9.704;2023-03-11T14:02:18;3.70;93.40
27162;DHT22;54464;50.558;9.704;2023-03-11T14:04:49;3.80;95.00
27162;DHT22;54464;50.558;9.704;2023-03-11T14:07:26;4.00;94.20
27162;DHT22;54464;50.558;9.704;2023-03-11T14:12:37;4.10;93.70
27162;DHT22;54464;50.558;9.704;2023-03-11T14:15:18;4.00;93.70
27162;DHT22;54464;50.558;9.704;2023-03-11T14:17:44;3.90;94.00
27162;DHT22;54464;50.558;9.704;2023-03-11T14:20:15;3.80;94.70
27162;DHT22;54464;50.558;9.704;2023-03-11T14:22:46;3.70;94.70
27162;DHT22;54464;50.558;9.704;2023-03-11T14:25:18;3.60;95.70
27162;DHT22;54464;50.558;9.704;2023-03-11T14:28:01;3.70;94.80
27162;DHT22;54464;50.558;9.704;2023-03-11T14:30:32;3.80;95.70
27162;DHT22;54464;50.558;9.704;2023-03-11T14:33:02;3.70;93.90
27162;DHT22;54464;50.558;9.704;2023-03-11T14:35:30;3.70;95.00
27162;DHT22;54464;50.558;9.704;2023-03-11T14:37:56;3.80;94.70
27162;DHT22;54464;50.558;9.704;2023-03-11T14:40:32;3.80;95.50
27162;DHT22;54464;50.558;9.704;2023-03-11T14:43:04;3.90;94.90
27162;DHT22;54464;50.558;9.704;2023-03-11T14:45:32;3.90;94.00
27162;DHT22;54464;50.558;9.704;2023-03-11T14:50:35;4.00;94.10
27162;DHT22;54464;50.558;9.704;2023-03-11T14:55:36;3.70;94.70
27162;DHT22;54464;50.558;9.704;2023-03-11T15:00:57;3.50;94.10
27162;DHT22;54464;50.558;9.704;2023-03-11T15:03:27;3.30;94.70
27162;DHT22;54464;50.558;9.704;2023-03-11T15:05:59;3.30;95.20
27162;DHT22;54464;50.558;9.704;2023-03-11T15:08:30;3.40;95.60
27162;DHT22;54464;50.558;9.704;2023-03-11T15:13:31;3.50;94.80
27162;DHT22;54464;50.558;9.704;2023-03-11T15:15:59;3.50;95.80
27162;DHT22;54464;50.558;9.704;2023-03-11T15:18:30;3.50;94.70
27162;DHT22;54464;50.558;9.704;2023-03-11T15:21:17;3.50;93.70
27162;DHT22;54464;50.558;9.704;2023-03-11T15:23:49;3.50;94.70
27162;DHT22;54464;50.558;9.704;2023-03-11T15:26:24;3.50;94.80
27162;DHT22;54464;50.558;9.704;2023-03-11T15:29:02;3.70;96.40
27162;DHT22;54464;50.558;9.704;2023-03-11T15:31:34;3.90;95.50
27162;DHT22;54464;50.558;9.704;2023-03-11T15:34:49;4.10;94.80
27162;DHT22;54464;50.558;9.704;2023-03-11T15:44:28;3.90;94.90
27162;DHT22;54464;50.558;9.704;2023-03-11T15:46:55;3.70;95.60
27162;DHT22;54464;50.558;9.704;2023-03-11T15:49:23;3.70;95.10
27162;DHT22;54464;50.558;9.704;2023-03-11T15:51:49;3.60;93.70
27162;DHT22;54464;50.558;9.704;2023-03-11T15:54:15;3.60;94.50
27162;DHT22;54464;50.558;9.704;2023-03-11T15:56:40;3.50;93.70
27162;DHT22;54464;50.558;9.704;2023-03-11T15:59:11;3.50;94.50
27162;DHT22;54464;50.558;9.704;2023-03-11T16:01:38;3.50;94.90
27162;DHT22;54464;50.558;9.704;2023-03-11T16:04:09;3.60;96.00
27162;DHT22;54464;50.558;9.704;2023-03-11T16:06:36;3.60;95.70
27162;DHT22;54464;50.558;9.704;2023-03-11T16:09:01;3.60;95.30
27162;DHT22;54464;50.558;9.704;2023-03-11T16:11:27;3.40;94.90
27162;DHT22;54464;50.558;9.704;2023-03-11T16:13:57;3.40;96.40
27162;DHT22;54464;50.558;9.704;2023-03-11T16:16:23;3.30;96.40
27162;DHT22;54464;50.558;9.704;2023-03-11T16:18:48;3.30;95.40
27162;DHT22;54464;50.558;9.704;2023-03-11T16:21:19;3.20;95.70
27162;DHT22;54464;50.558;9.704;2023-03-11T16:23:45;3.20;96.00
27162;DHT22;54464;50.558;9.704;2023-03-11T16:26:12;3.20;96.40
27162;DHT22;54464;50.558;9.704;2023-03-11T16:28:38;3.10;95.70
27162;DHT22;54464;50.558;9.704;2023-03-11T16:31:04;3.10;96.30
27162;DHT22;54464;50.558;9.704;2023-03-11T16:33:30;3.00;95.70
27162;DHT22;54464;50.558;9.704;2023-03-11T16:35:56;3.00;96.60
27162;DHT22;54464;50.558;9.704;2023-03-11T16:38:21;3.00;95.70
27162;DHT22;54464;50.558;9.704;2023-03-11T16:40:58;2.90;96.30
27162;DHT22;54464;50.558;9.704;2023-03-11T16:43:24;2.90;96.10
27162;DHT22;54464;50.558;9.704;2023-03-11T16:45:50;2.90;96.80
27162;DHT22;54464;50.558;9.704;2023-03-11T16:48:18;2.80;97.00
27162;DHT22;54464;50.558;9.704;2023-03-11T16:50:43;2.80;97.10
27162;DHT22;54464;50.558;9.704;2023-03-11T16:53:09;2.80;97.10
27162;DHT22;54464;50.558;9.704;2023-03-11T16:55:35;2.70;96.40
27162;DHT22;54464;50.558;9.704;2023-03-11T16:58:00;2.70;97.00
27162;DHT22;54464;50.558;9.704;2023-03-11T17:00:26;2.70;97.20
27162;DHT22;54464;50.558;9.704;2023-03-11T17:02:51;2.70;97.20
27162;DHT22;54464;50.558;9.704;2023-03-11T17:05:17;2.70;97.10
27162;DHT22;54464;50.558;9.704;2023-03-11T17:07:43;2.70;97.40
27162;DHT22;54464;50.558;9.704;2023-03-11T17:10:10;2.70;97.80
27162;DHT22;54464;50.558;9.704;2023-03-11T17:12:36;2.60;97.30
27162;DHT22;54464;50.558;9.704;2023-03-11T17:15:02;2.60;97.30
27162;DHT22;54464;50.558;9.704;2023-03-11T17:17:28;2.60;97.10
27162;DHT22;54464;50.558;9.704;2023-03-11T17:19:54;2.60;97.30
27162;DHT22;54464;50.558;9.704;2023-03-11T17:22:20;2.50;97.70
27162;DHT22;54464;50.558;9.704;2023-03-11T17:24:45;2.50;98.10
27162;DHT22;54464;50.558;9.704;2023-03-11T17:27:11;2.40;97.70
27162;DHT22;54464;50.558;9.704;2023-03-11T17:29:37;2.40;97.80
27162;DHT22;54464;50.558;9.704;2023-03-11T17:32:02;2.30;98.00
27162;DHT22;54464;50.558;9.704;2023-03-11T17:34:30;2.30;97.40
27162;DHT22;54464;50.558;9.704;2023-03-11T17:36:56;2.30;97.90
27162;DHT22;54464;50.558;9.704;2023-03-11T17:39:22;2.20;98.30
27162;DHT22;54464;50.558;9.704;2023-03-11T17:41:47;2.20;98.40
27162;DHT22;54464;50.558;9.704;2023-03-11T17:44:13;2.20;98.60